East Wareham, Massachusetts
Current Conditions -  °F | °C
As of 2:35 PM on Thursday 18 Dec 2014 (Local Time) from KFMH Reporting Station
Broken Clouds Broken Clouds  
Wind Chill: 35°   Ceiling: 3500
Heat Index: 43°   Visibility: 10mi
Dew Point: 28°   Wind: 16mph
Humidity: 57%   Direction: 290°WNW
Pressure: 29.78"   Gusts: NA
Location:  41.76°N, 70.67°W
Report Text: KFMH 181935Z AUTO 29014KT 10SM BKN035 06/M02 A2978 RMK AO2
Loading
Personal Weather Stations






























Interactive Weather Map New forecast layout! Learn more

10-Day Weather Forecast

Advertisements
Track Severe Weather on mobile